Time;durP1;ratioP1;P1;durP2;ratioP2;P2;SDS_P1;SDS_P2;PMS_P1;PMS_P2;Temp;Humidity;BMP_temperature;BMP_pressure;BME280_temperature;BME280_humidity;BME280_pressure;Samples;Min_cycle;Max_cycle;Signal;HPM_P1;HPM_P2
2022/05/29 00:02:25;;;;;;;5.77;5.13;;;12.00;87.70;;;;;;5040909;28;20477;-73
2022/05/29 00:04:52;;;;;;;10.50;3.60;;;12.00;88.40;;;;;;5042424;28;20900;-75
2022/05/29 00:07:20;;;;;;;4.37;4.00;;;12.00;88.20;;;;;;5046296;28;20477;-73
2022/05/29 00:09:49;;;;;;;6.40;4.60;;;12.00;88.40;;;;;;5042319;28;20475;-75
2022/05/29 00:12:19;;;;;;;13.13;5.00;;;12.00;88.10;;;;;;5039227;28;20492;-73
2022/05/29 00:14:47;;;;;;;4.70;4.30;;;12.00;88.10;;;;;;5040372;28;20485;-73
2022/05/29 00:17:15;;;;;;;6.67;5.97;;;12.00;86.00;;;;;;5043230;28;20495;-73
2022/05/29 00:19:42;;;;;;;6.53;3.60;;;12.10;84.30;;;;;;5044305;28;20952;-73
2022/05/29 00:22:11;;;;;;;7.63;6.87;;;12.20;84.10;;;;;;5046204;28;20486;-74
2022/05/29 00:24:39;;;;;;;4.30;3.27;;;12.30;84.10;;;;;;5046822;28;21001;-74
2022/05/29 00:27:06;;;;;;;14.47;6.90;;;12.30;82.50;;;;;;5027615;28;20478;-73
2022/05/29 00:29:35;;;;;;;7.47;4.17;;;12.40;80.80;;;;;;5045197;28;20542;-71
2022/05/29 00:32:02;;;;;;;9.10;5.53;;;12.50;80.40;;;;;;5047488;28;20471;-73
2022/05/29 00:34:29;;;;;;;4.50;3.60;;;12.60;80.50;;;;;;5040786;28;20483;-73
2022/05/29 00:36:58;;;;;;;5.33;4.63;;;12.60;80.20;;;;;;5045840;28;20860;-74
2022/05/29 00:39:26;;;;;;;16.63;3.83;;;12.70;79.90;;;;;;5042662;28;20472;-75
2022/05/29 00:41:53;;;;;;;5.40;4.70;;;12.70;79.60;;;;;;5044440;28;20849;-73
2022/05/29 00:44:23;;;;;;;5.40;3.70;;;12.70;79.20;;;;;;5034948;28;20780;-74
2022/05/29 00:46:55;;;;;;;17.97;4.10;;;12.80;79.10;;;;;;5040033;28;20489;-73
2022/05/29 00:49:23;;;;;;;5.97;4.23;;;12.80;79.00;;;;;;5042507;28;20469;-74
2022/05/29 00:51:54;;;;;;;10.83;4.77;;;12.90;78.90;;;;;;5044088;28;20479;-73
2022/05/29 00:54:21;;;;;;;6.13;3.87;;;12.90;79.80;;;;;;5039716;28;20506;-73
2022/05/29 00:56:48;;;;;;;4.30;3.87;;;12.90;80.40;;;;;;5041560;28;20819;-75
2022/05/29 00:59:19;;;;;;;14.17;5.90;;;12.90;79.70;;;;;;5043735;28;20481;-73
2022/05/29 01:01:46;;;;;;;6.77;4.60;;;13.00;79.80;;;;;;5036955;28;20471;-75
2022/05/29 01:04:14;;;;;;;6.40;5.80;;;13.00;79.80;;;;;;5041151;28;20487;-74
2022/05/29 01:06:41;;;;;;;12.23;3.63;;;13.00;79.50;;;;;;5033825;28;20483;-75
2022/05/29 01:09:10;;;;;;;7.57;6.87;;;13.00;80.10;;;;;;5044038;28;20755;-73
2022/05/29 01:11:52;;;;;;;10.13;3.70;;;13.00;78.90;;;;;;5032839;28;20479;-74
2022/05/29 01:14:26;;;;;;;10.07;5.20;;;13.00;78.90;;;;;;5053309;28;20474;-74
2022/05/29 01:17:06;;;;;;;12.30;4.20;;;13.00;79.00;;;;;;5037862;28;20493;-74
2022/05/29 01:19:53;;;;;;;8.80;4.30;;;13.10;78.60;;;;;;5036516;28;20481;-75
2022/05/29 01:22:54;;;;;;;5.83;3.67;;;13.10;79.00;;;;;;5029496;28;20924;-73
2022/05/29 01:25:49;;;;;;;7.97;5.10;;;13.10;78.40;;;;;;5031309;28;20478;-74
2022/05/29 01:28:34;;;;;;;14.03;7.40;;;13.10;78.30;;;;;;5046367;28;20929;-73
2022/05/29 01:31:07;;;;;;;24.80;5.67;;;13.10;78.10;;;;;;5042481;28;20502;-73
2022/05/29 01:33:40;;;;;;;6.27;4.20;;;13.10;78.20;;;;;;5037653;28;20479;-73
2022/05/29 01:36:13;;;;;;;38.27;7.90;;;13.00;77.90;;;;;;5042961;28;20477;-74
2022/05/29 01:38:45;;;;;;;7.70;5.20;;;13.00;78.00;;;;;;5033057;28;20480;-74
2022/05/29 01:41:20;;;;;;;10.97;7.30;;;12.90;77.80;;;;;;5031986;28;20473;-72
2022/05/29 01:43:53;;;;;;;6.70;4.60;;;12.90;77.90;;;;;;5041522;28;20533;-73
2022/05/29 01:46:26;;;;;;;12.00;7.80;;;12.90;77.30;;;;;;5043172;28;20490;-73
2022/05/29 01:48:58;;;;;;;16.67;5.40;;;12.90;77.90;;;;;;5042203;28;20598;-75
2022/05/29 01:51:27;;;;;;;10.63;4.50;;;13.00;78.00;;;;;;5040576;28;20527;-75
2022/05/29 01:54:01;;;;;;;7.13;5.30;;;13.00;78.10;;;;;;5040561;28;20496;-73
2022/05/29 01:56:32;;;;;;;13.60;5.13;;;13.00;77.70;;;;;;5037787;28;20479;-74
2022/05/29 01:59:07;;;;;;;6.10;4.80;;;13.00;77.10;;;;;;5047274;28;20484;-74
2022/05/29 02:01:38;;;;;;;5.03;3.50;;;12.90;77.20;;;;;;5040485;28;20482;-72
2022/05/29 02:04:13;;;;;;;14.93;8.07;;;12.60;77.10;;;;;;5036911;28;20490;-74
2022/05/29 02:09:33;;;;;;;12.27;4.50;;;12.90;77.60;;;;;;5048216;28;20853;-73
2022/05/29 02:12:02;;;;;;;18.77;5.23;;;12.90;77.50;;;;;;5046876;28;20495;-75
2022/05/29 02:14:36;;;;;;;8.17;4.10;;;12.90;77.70;;;;;;5056603;28;20488;-73
2022/05/29 02:17:10;;;;;;;12.47;5.23;;;13.00;77.60;;;;;;5059849;28;20490;-74
2022/05/29 02:19:41;;;;;;;14.27;4.20;;;13.00;77.50;;;;;;5062795;28;20491;-73
2022/05/29 02:22:12;;;;;;;17.23;8.60;;;12.90;76.70;;;;;;5058596;28;20844;-74
2022/05/29 02:24:42;;;;;;;7.43;3.50;;;12.90;78.50;;;;;;5046027;28;20483;-72
2022/05/29 02:27:14;;;;;;;15.07;7.87;;;12.80;79.20;;;;;;5061109;28;20483;-74
2022/05/29 02:29:43;;;;;;;4.57;2.77;;;12.80;79.90;;;;;;5061232;28;20481;-74
2022/05/29 02:32:17;;;;;;;17.40;9.70;;;12.80;80.60;;;;;;5058575;28;20515;-74
2022/05/29 02:34:49;;;;;;;8.40;3.80;;;;;;;;;;5063076;28;20484;-73
2022/05/29 02:37:22;;;;;;;8.90;5.63;;;12.80;81.30;;;;;;5045605;28;20483;-75
2022/05/29 02:39:56;;;;;;;9.70;4.07;;;12.80;81.10;;;;;;5059775;28;20489;-73
2022/05/29 02:42:31;;;;;;;19.03;3.70;;;12.80;81.80;;;;;;5061582;28;20481;-75
2022/05/29 02:45:08;;;;;;;10.23;4.40;;;12.70;81.20;;;;;;5063044;28;20505;-74
2022/05/29 02:47:47;;;;;;;14.60;4.10;;;12.60;81.50;;;;;;5061676;28;20483;-76
2022/05/29 02:50:35;;;;;;;10.20;6.17;;;12.60;81.00;;;;;;5061873;28;21019;-75
2022/05/29 02:53:07;;;;;;;9.80;5.87;;;12.50;81.50;;;;;;5062427;28;21109;-75
2022/05/29 02:55:35;;;;;;;7.13;3.40;;;12.60;81.80;;;;;;5061907;28;20501;-77
2022/05/29 02:58:06;;;;;;;20.97;5.27;;;12.50;81.80;;;;;;5060665;28;20475;-76
2022/05/29 03:00:39;;;;;;;12.43;4.27;;;12.40;81.70;;;;;;5061216;28;20494;-74
2022/05/29 03:03:16;;;;;;;7.90;4.97;;;12.40;81.10;;;;;;5061882;28;20482;-73
2022/05/29 03:05:53;;;;;;;11.93;4.97;;;12.40;81.80;;;;;;5060844;28;20485;-76
2022/05/29 03:08:40;;;;;;;7.33;3.13;;;12.50;82.40;;;;;;5047132;28;20476;-73
2022/05/29 03:11:12;;;;;;;12.90;8.47;;;12.50;82.10;;;;;;5058829;28;20480;-76
2022/05/29 03:13:51;;;;;;;7.50;3.90;;;12.50;82.20;;;;;;5055752;28;20512;-75
2022/05/29 03:16:31;;;;;;;10.30;5.53;;;12.50;82.40;;;;;;5034429;28;20486;-74
2022/05/29 03:19:04;;;;;;;10.90;4.67;;;12.40;80.90;;;;;;5025967;28;20489;-76
2022/05/29 03:21:39;;;;;;;7.30;3.63;;;12.30;80.90;;;;;;5050953;28;20482;-75
2022/05/29 03:24:15;;;;;;;16.23;7.70;;;12.30;80.50;;;;;;5062134;28;20480;-74
2022/05/29 03:26:49;;;;;;;10.10;3.93;;;12.30;81.20;;;;;;5058573;28;20483;-74
2022/05/29 03:29:24;;;;;;;11.00;5.73;;;12.30;81.00;;;;;;5055164;28;23055;-73
2022/05/29 03:31:52;;;;;;;6.60;4.07;;;12.30;81.10;;;;;;5057208;28;20504;-76
2022/05/29 03:34:21;;;;;;;4.73;3.80;;;12.30;81.70;;;;;;5053049;28;20489;-76
2022/05/29 03:36:51;;;;;;;5.60;3.77;;;12.30;81.20;;;;;;5066873;28;20473;-73
2022/05/29 03:39:18;;;;;;;11.70;4.50;;;12.30;81.30;;;;;;5059566;28;20470;-74
2022/05/29 03:41:46;;;;;;;6.97;4.23;;;12.40;80.80;;;;;;5059175;28;20484;-77
2022/05/29 03:44:14;;;;;;;35.37;8.03;;;12.50;80.50;;;;;;5057920;28;20485;-74
2022/05/29 03:46:42;;;;;;;5.17;3.53;;;12.50;80.50;;;;;;5060622;28;20841;-75
2022/05/29 03:49:11;;;;;;;8.20;6.80;;;12.60;80.30;;;;;;5060306;28;20504;-75
2022/05/29 03:51:39;;;;;;;13.20;4.10;;;12.70;80.30;;;;;;5062000;28;20480;-76
2022/05/29 03:54:07;;;;;;;9.30;6.13;;;12.80;80.10;;;;;;5061273;28;20475;-75
2022/05/29 03:56:34;;;;;;;10.10;3.83;;;12.90;80.10;;;;;;5061089;28;20479;-75
2022/05/29 03:59:01;;;;;;;18.00;4.30;;;12.90;79.60;;;;;;5057706;28;20468;-75
2022/05/29 04:01:28;;;;;;;13.07;3.60;;;13.00;79.40;;;;;;5056627;28;21093;-76
2022/05/29 04:03:55;;;;;;;13.33;4.50;;;13.00;79.20;;;;;;5047894;28;20476;-74
2022/05/29 04:06:30;;;;;;;17.03;2.80;;;13.00;79.40;;;;;;5036976;28;20520;-73
2022/05/29 04:14:29;;;;;;;9.10;4.50;;;13.00;79.60;;;;;;5061189;28;21140;-75
2022/05/29 04:16:56;;;;;;;11.83;3.60;;;12.90;78.50;;;;;;5059534;28;20481;-75
2022/05/29 04:19:22;;;;;;;10.03;5.00;;;12.80;78.40;;;;;;5060168;28;20530;-76
2022/05/29 04:21:51;;;;;;;9.70;4.90;;;12.70;78.20;;;;;;5060912;28;20487;-72
2022/05/29 04:24:19;;;;;;;13.23;4.07;;;12.60;78.30;;;;;;5060448;28;20475;-74
2022/05/29 04:26:46;;;;;;;6.93;3.90;;;12.50;79.00;;;;;;5059229;28;20516;-74
2022/05/29 04:29:13;;;;;;;25.47;9.03;;;12.50;79.30;;;;;;5059651;28;20938;-72
2022/05/29 04:32:59;;;;;;;14.73;3.20;;;;;;;;;;5059098;28;20829;-72
2022/05/29 04:34:30;;;;;;;9.67;4.40;;;12.50;80.60;;;;;;5057537;28;20464;-76
2022/05/29 04:36:59;;;;;;;8.47;4.50;;;12.50;80.00;;;;;;5059162;28;20497;-73
2022/05/29 04:39:27;;;;;;;13.73;4.77;;;12.50;80.20;;;;;;5058973;28;20484;-75
2022/05/29 04:41:53;;;;;;;9.13;4.00;;;12.60;80.90;;;;;;5059204;28;20517;-73
2022/05/29 04:44:20;;;;;;;7.90;3.63;;;12.70;81.30;;;;;;5051932;28;20519;-75
2022/05/29 04:46:47;;;;;;;27.40;5.80;;;12.70;80.80;;;;;;5047985;28;20498;-73
2022/05/29 04:49:14;;;;;;;15.07;7.20;;;12.70;80.80;;;;;;5056294;28;20486;-74
2022/05/29 04:51:40;;;;;;;4.77;2.40;;;12.70;80.90;;;;;;5058293;28;20497;-73
2022/05/29 04:54:09;;;;;;;15.80;8.00;;;12.80;81.20;;;;;;5058969;28;20480;-74
2022/05/29 04:56:37;;;;;;;7.93;4.07;;;12.80;80.30;;;;;;5061072;28;20483;-72
2022/05/29 04:59:04;;;;;;;16.80;7.60;;;12.90;80.30;;;;;;5048358;28;20469;-74
2022/05/29 05:01:31;;;;;;;6.60;3.60;;;12.90;80.10;;;;;;5061232;28;20574;-73
2022/05/29 05:03:58;;;;;;;12.37;3.70;;;13.00;80.70;;;;;;5058792;28;20833;-72
2022/05/29 05:06:27;;;;;;;6.43;3.73;;;13.00;80.00;;;;;;5057871;28;20482;-74
2022/05/29 05:08:54;;;;;;;10.23;7.40;;;13.00;80.00;;;;;;5053844;28;21264;-74
2022/05/29 05:11:23;;;;;;;6.60;2.90;;;13.00;79.70;;;;;;5059451;28;20489;-74
2022/05/29 05:13:50;;;;;;;7.07;3.63;;;13.00;79.80;;;;;;5053285;28;20478;-76
2022/05/29 05:16:17;;;;;;;6.80;4.70;;;13.00;79.70;;;;;;5063736;28;20485;-73
2022/05/29 05:18:43;;;;;;;33.47;5.80;;;12.90;79.50;;;;;;5058973;28;20909;-74
2022/05/29 05:21:10;;;;;;;16.43;6.37;;;12.90;80.00;;;;;;5055156;28;20499;-73
2022/05/29 05:23:40;;;;;;;5.80;3.27;;;12.90;80.20;;;;;;5060449;28;20482;-74
2022/05/29 05:26:12;;;;;;;13.43;4.30;;;12.90;80.10;;;;;;5024817;28;20490;-72
2022/05/29 05:28:41;;;;;;;6.90;3.33;;;12.90;80.70;;;;;;5060033;28;21983;-71
2022/05/29 05:31:08;;;;;;;10.47;5.83;;;12.90;80.30;;;;;;5059802;28;20464;-74
2022/05/29 05:33:34;;;;;;;11.03;3.27;;;13.00;80.30;;;;;;5049463;28;20474;-73
2022/05/29 05:36:01;;;;;;;12.23;6.30;;;13.00;79.40;;;;;;5059184;28;20474;-74
2022/05/29 05:38:28;;;;;;;8.73;4.23;;;13.00;79.50;;;;;;5059786;28;20485;-73
2022/05/29 05:40:56;;;;;;;14.50;5.37;;;13.00;79.40;;;;;;5056168;28;20476;-75
2022/05/29 05:43:23;;;;;;;9.23;3.63;;;13.00;79.50;;;;;;5055958;28;20492;-73
2022/05/29 05:45:55;;;;;;;6.37;4.33;;;;;;;;;;5058340;28;20486;-74
2022/05/29 05:48:23;;;;;;;12.90;4.90;;;13.00;79.00;;;;;;5058025;28;20484;-72
2022/05/29 05:50:50;;;;;;;7.37;4.10;;;13.00;79.70;;;;;;5058371;28;20541;-72
2022/05/29 05:53:16;;;;;;;12.23;5.80;;;12.90;80.30;;;;;;5058849;28;20872;-75
2022/05/29 05:55:44;;;;;;;7.20;4.70;;;12.90;79.10;;;;;;5054847;28;20501;-72
2022/05/29 05:58:11;;;;;;;10.10;6.50;;;12.90;80.10;;;;;;5058451;28;20496;-73
2022/05/29 06:00:37;;;;;;;6.53;3.70;;;12.80;79.50;;;;;;5055874;28;20486;-73
2022/05/29 06:03:06;;;;;;;14.70;7.13;;;12.70;80.20;;;;;;5057003;28;20478;-72
2022/05/29 06:05:33;;;;;;;8.17;5.00;;;12.60;79.80;;;;;;5055514;28;20497;-74
2022/05/29 06:07:59;;;;;;;9.77;5.63;;;11.30;78.90;;;;;;5057138;28;20478;-74
2022/05/29 06:10:26;;;;;;;7.10;4.03;;;12.50;80.60;;;;;;5057172;28;20623;-71
2022/05/29 06:12:54;;;;;;;12.17;5.57;;;12.40;81.60;;;;;;5056965;28;20478;-73
2022/05/29 06:15:20;;;;;;;9.43;5.13;;;12.20;82.20;;;;;;5058333;28;20479;-74
2022/05/29 06:17:47;;;;;;;6.50;3.70;;;12.20;84.10;;;;;;5059002;28;20481;-73
2022/05/29 06:20:16;;;;;;;13.73;6.70;;;12.10;84.50;;;;;;5055118;28;21218;-73
2022/05/29 06:22:42;;;;;;;8.77;4.57;;;12.00;85.30;;;;;;5050763;28;20971;-73
2022/05/29 06:25:11;;;;;;;22.73;9.93;;;11.90;86.20;;;;;;5056635;28;20478;-74
2022/05/29 06:27:38;;;;;;;14.37;4.10;;;;;;;;;;5057817;28;20482;-73
2022/05/29 06:30:08;;;;;;;11.97;6.13;;;11.90;87.80;;;;;;5056918;28;20989;-73
2022/05/29 06:32:35;;;;;;;13.10;6.47;;;11.90;88.10;;;;;;5057389;28;20507;-74
2022/05/29 06:35:02;;;;;;;19.10;7.40;;;11.90;88.90;;;;;;5058744;28;20482;-73
2022/05/29 06:37:31;;;;;;;11.00;4.03;;;11.80;88.00;;;;;;5058251;28;20486;-73
2022/05/29 06:39:58;;;;;;;11.97;5.43;;;11.80;87.70;;;;;;5054940;28;20489;-73
2022/05/29 06:42:25;;;;;;;19.30;6.40;;;;;;;;;;5057404;28;20489;-70
2022/05/29 06:44:52;;;;;;;18.83;6.13;;;11.60;87.60;;;;;;5050663;28;20487;-72
2022/05/29 06:47:19;;;;;;;21.80;6.20;;;11.50;87.90;;;;;;5049028;28;20474;-73
2022/05/29 06:49:49;;;;;;;13.13;4.50;;;11.60;88.90;;;;;;5046089;28;20492;-74
2022/05/29 06:52:17;;;;;;;28.60;9.20;;;11.60;89.60;;;;;;5043264;28;20531;-72
2022/05/29 06:54:46;;;;;;;6.13;3.57;;;11.70;89.80;;;;;;5046207;28;20490;-75
2022/05/29 06:57:36;;;;;;;21.97;10.23;;;11.80;90.30;;;;;;5054088;28;21065;-75
2022/05/29 07:08:14;;;;;;;11.43;7.63;;;12.20;90.30;;;;;;5055005;28;20497;-75
2022/05/29 07:10:42;;;;;;;11.27;5.77;;;12.30;90.40;;;;;;5059602;28;20840;-75
2022/05/29 07:13:09;;;;;;;14.50;8.10;;;12.40;90.40;;;;;;5051969;28;20470;-73
2022/05/29 07:15:36;;;;;;;6.97;5.40;;;;;;;;;;5066028;28;20483;-74
2022/05/29 07:18:03;;;;;;;17.20;7.80;;;12.40;90.30;;;;;;5059457;28;20488;-72
2022/05/29 07:20:30;;;;;;;9.20;5.20;;;12.40;90.70;;;;;;5051255;28;20551;-73
2022/05/29 07:22:59;;;;;;;10.17;4.60;;;12.50;91.00;;;;;;5054907;28;20486;-73
2022/05/29 07:25:26;;;;;;;10.40;5.40;;;12.50;90.30;;;;;;5058296;28;20558;-72
2022/05/29 07:27:54;;;;;;;10.43;4.73;;;12.60;90.20;;;;;;5064722;28;20505;-70
2022/05/29 07:30:21;;;;;;;10.77;4.77;;;12.70;90.60;;;;;;5061016;28;20478;-71
2022/05/29 07:32:48;;;;;;;5.17;3.43;;;12.80;91.00;;;;;;5060821;28;20489;-72
2022/05/29 07:35:16;;;;;;;12.43;5.77;;;12.90;90.20;;;;;;5059005;28;20494;-71
2022/05/29 07:37:44;;;;;;;9.50;4.03;;;13.00;89.60;;;;;;5055115;28;20977;-74
2022/05/29 07:40:11;;;;;;;11.20;6.47;;;13.10;89.80;;;;;;5060099;28;20482;-73
2022/05/29 07:45:24;;;;;;;9.33;4.70;;;13.20;89.30;;;;;;5057842;28;20481;-73
2022/05/29 07:47:51;;;;;;;12.07;5.17;;;13.30;89.90;;;;;;5022014;28;20478;-71
2022/05/29 07:50:20;;;;;;;16.30;8.00;;;13.40;90.50;;;;;;5040372;28;20864;-72
2022/05/29 07:52:47;;;;;;;6.87;3.60;;;13.60;89.80;;;;;;5041086;28;20489;-74
2022/05/29 07:55:14;;;;;;;17.10;7.60;;;13.70;88.40;;;;;;5036822;28;21004;-72
2022/05/29 07:57:41;;;;;;;16.00;6.30;;;13.90;89.50;;;;;;5039275;28;20892;-73
2022/05/29 08:00:11;;;;;;;18.23;7.33;;;14.30;89.70;;;;;;5038154;28;20992;-75
2022/05/29 08:02:39;;;;;;;14.53;3.60;;;14.70;90.00;;;;;;5039605;28;20487;-76
2022/05/29 08:05:08;;;;;;;14.23;8.33;;;15.10;89.50;;;;;;5040668;28;21203;-75
2022/05/29 08:07:35;;;;;;;7.33;4.70;;;15.60;86.00;;;;;;5034513;28;20488;-73
2022/05/29 08:10:03;;;;;;;24.07;4.50;;;16.00;83.90;;;;;;5031122;28;20491;-74
2022/05/29 08:12:30;;;;;;;4.43;3.30;;;16.30;85.70;;;;;;5030024;28;20475;-72
2022/05/29 08:14:56;;;;;;;8.33;3.47;;;16.60;87.20;;;;;;5038611;28;20488;-73
2022/05/29 08:17:23;;;;;;;17.10;5.33;;;16.90;81.50;;;;;;5036736;28;20486;-72
2022/05/29 08:19:51;;;;;;;15.33;4.73;;;17.10;82.40;;;;;;5025599;28;20483;-72
2022/05/29 08:22:18;;;;;;;10.30;6.80;;;;;;;;;;5039814;28;20488;-75
2022/05/29 08:33:00;;;;;;;20.07;5.20;;;18.00;80.00;;;;;;5033265;28;20497;-75
2022/05/29 08:35:30;;;;;;;8.03;4.60;;;18.30;80.80;;;;;;5037736;28;20988;-73
2022/05/29 08:37:57;;;;;;;8.40;5.30;;;18.40;77.90;;;;;;5037323;28;20484;-74
2022/05/29 08:40:24;;;;;;;15.30;5.00;;;18.50;77.50;;;;;;5041052;28;20459;-74
2022/05/29 08:42:51;;;;;;;7.07;4.60;;;18.40;76.60;;;;;;5041362;28;20468;-75
2022/05/29 08:45:19;;;;;;;11.60;6.10;;;18.40;75.80;;;;;;5039133;28;20479;-75
2022/05/29 08:47:46;;;;;;;14.97;3.90;;;18.20;75.30;;;;;;5037892;28;20527;-75
2022/05/29 08:50:19;;;;;;;19.77;9.00;;;18.20;77.40;;;;;;5039635;28;20482;-74
2022/05/29 08:53:00;;;;;;;6.80;3.83;;;18.40;78.60;;;;;;5041047;28;20844;-75
2022/05/29 08:55:32;;;;;;;12.27;6.20;;;18.60;77.70;;;;;;5044325;28;20952;-74
2022/05/29 08:58:14;;;;;;;13.93;5.63;;;18.90;75.60;;;;;;5057970;28;20511;-73
2022/05/29 09:00:52;;;;;;;12.20;4.63;;;18.90;74.80;;;;;;5050890;28;20931;-73
2022/05/29 09:03:37;;;;;;;14.70;6.40;;;19.30;78.40;;;;;;5045101;28;20480;-75
2022/05/29 09:06:08;;;;;;;28.97;9.47;;;19.60;76.40;;;;;;5023792;28;20499;-74
2022/05/29 09:08:40;;;;;;;8.13;4.90;;;19.90;75.90;;;;;;5020965;28;21199;-74
2022/05/29 09:11:11;;;;;;;29.27;10.20;;;20.10;74.30;;;;;;5039412;28;20489;-75
2022/05/29 09:13:41;;;;;;;7.60;3.70;;;20.10;72.70;;;;;;5036959;28;20481;-74
2022/05/29 09:16:13;;;;;;;24.10;7.77;;;23.00;73.00;;;;;;5035102;28;20726;-73
2022/05/29 09:18:46;;;;;;;14.20;4.30;;;19.70;69.70;;;;;;5046869;28;20505;-74
2022/05/29 09:21:17;;;;;;;18.77;8.13;;;19.20;68.60;;;;;;5055638;28;20487;-73
2022/05/29 09:23:52;;;;;;;6.47;3.33;;;18.80;69.20;;;;;;5057173;28;20483;-75
2022/05/29 09:26:20;;;;;;;17.23;8.57;;;18.30;69.90;;;;;;5054942;28;20971;-71
2022/05/29 09:28:47;;;;;;;22.03;5.20;;;18.10;70.30;;;;;;5051786;28;20479;-73
2022/05/29 09:31:17;;;;;;;17.93;8.00;;;18.00;71.50;;;;;;5058479;28;20479;-75
2022/05/29 09:33:45;;;;;;;8.17;4.10;;;17.80;70.40;;;;;;5059525;28;20975;-73
2022/05/29 09:36:21;;;;;;;19.60;7.33;;;17.40;69.40;;;;;;5051815;28;20491;-75
2022/05/29 09:38:55;;;;;;;11.07;4.67;;;17.50;70.60;;;;;;5047290;28;20470;-73
2022/05/29 09:41:27;;;;;;;13.80;3.83;;;17.50;72.40;;;;;;5059323;28;20479;-73
2022/05/29 09:44:10;;;;;;;11.40;5.60;;;17.50;72.30;;;;;;5044219;28;20525;-74
2022/05/29 09:46:39;;;;;;;18.40;4.07;;;17.60;73.70;;;;;;5056961;28;20474;-74
2022/05/29 09:52:07;;;;;;;20.67;6.70;;;18.10;73.00;;;;;;5051617;28;20532;-73
2022/05/29 09:54:38;;;;;;;8.00;3.40;;;18.20;72.80;;;;;;5048632;28;20486;-74
2022/05/29 09:57:12;;;;;;;14.53;5.13;;;18.20;70.30;;;;;;5055154;28;20487;-74
2022/05/29 09:59:43;;;;;;;14.33;5.70;;;18.20;66.90;;;;;;5057011;28;20478;-74
2022/05/29 10:02:23;;;;;;;26.60;9.30;;;18.50;67.50;;;;;;5049545;28;20467;-74
2022/05/29 10:04:52;;;;;;;10.43;4.23;;;18.40;70.70;;;;;;5037682;28;20499;-73
2022/05/29 10:07:30;;;;;;;26.43;8.30;;;18.80;70.00;;;;;;5056898;28;20486;-74
2022/05/29 10:10:01;;;;;;;10.30;5.43;;;18.90;71.00;;;;;;5052512;28;21100;-75
2022/05/29 10:12:36;;;;;;;9.10;4.63;;;;;;;;;;5058434;28;20885;-75
2022/05/29 10:15:05;;;;;;;15.80;6.70;;;19.60;72.50;;;;;;5058601;28;20490;-74
2022/05/29 10:17:37;;;;;;;5.10;3.50;;;19.60;66.90;;;;;;5047367;28;20486;-74
2022/05/29 10:20:21;;;;;;;7.93;4.57;;;19.90;70.20;;;;;;5052065;28;20487;-73
2022/05/29 10:22:48;;;;;;;8.97;4.37;;;20.00;66.80;;;;;;5058143;28;20489;-75
2022/05/29 10:25:22;;;;;;;14.70;6.43;;;20.10;63.80;;;;;;5052653;28;20480;-75
2022/05/29 10:27:51;;;;;;;5.37;4.00;;;20.10;62.20;;;;;;5055489;28;20479;-72
2022/05/29 10:30:28;;;;;;;7.30;4.90;;;;;;;;;;5055372;28;20755;-75
2022/05/29 10:33:02;;;;;;;6.47;3.53;;;19.90;64.90;;;;;;5050418;28;20478;-73
2022/05/29 10:35:32;;;;;;;6.97;4.90;;;19.70;66.50;;;;;;5057136;28;20497;-73
2022/05/29 10:38:15;;;;;;;14.60;4.97;;;20.10;67.10;;;;;;5060076;28;20480;-76
2022/05/29 10:40:44;;;;;;;6.03;2.80;;;20.30;64.20;;;;;;5061240;28;20466;-76
2022/05/29 10:43:11;;;;;;;27.90;7.00;;;20.60;63.10;;;;;;5060037;28;20477;-75
2022/05/29 10:45:44;;;;;;;7.73;5.03;;;20.50;60.00;;;;;;5059919;28;20478;-77
2022/05/29 10:48:39;;;;;;;6.70;5.20;;;20.60;64.80;;;;;;5061410;28;20473;-75
2022/05/29 10:51:13;;;;;;;5.43;4.57;;;20.70;61.30;;;;;;5043429;28;20474;-75
2022/05/29 10:54:14;;;;;;;3.80;2.70;;;20.60;58.80;;;;;;5054588;28;20487;-72
2022/05/29 10:56:51;;;;;;;4.97;2.50;;;20.50;59.90;;;;;;5049384;28;20512;-73
2022/05/29 10:59:36;;;;;;;9.13;6.00;;;20.60;58.90;;;;;;5060215;28;20481;-74
2022/05/29 11:05:14;;;;;;;6.20;4.37;;;20.70;64.50;;;;;;5051417;28;20628;-74
2022/05/29 11:07:50;;;;;;;5.03;2.80;;;20.70;58.90;;;;;;5058110;28;20477;-75
2022/05/29 11:10:31;;;;;;;12.20;7.03;;;20.80;58.20;;;;;;5059690;28;23265;-74
2022/05/29 11:13:10;;;;;;;5.77;4.00;;;20.80;59.20;;;;;;5049414;28;20463;-76
2022/05/29 11:15:43;;;;;;;9.83;5.57;;;20.90;57.80;;;;;;5056484;28;20576;-73
2022/05/29 11:18:44;;;;;;;14.93;7.70;;;21.00;57.70;;;;;;5058757;28;21050;-75
2022/05/29 11:21:21;;;;;;;15.50;5.47;;;21.30;57.00;;;;;;5023881;28;20487;-75
2022/05/29 11:24:04;;;;;;;6.07;3.17;;;21.40;57.40;;;;;;5059750;28;20478;-76
2022/05/29 11:26:43;;;;;;;8.33;5.07;;;21.40;58.00;;;;;;5044287;28;20979;-74
2022/05/29 11:29:40;;;;;;;7.20;4.63;;;21.30;54.90;;;;;;5049573;28;20870;-74
2022/05/29 11:32:20;;;;;;;13.07;7.70;;;21.20;57.70;;;;;;5049371;28;20470;-73
2022/05/29 11:34:58;;;;;;;17.13;5.50;;;21.40;56.00;;;;;;5063526;28;20482;-73
2022/05/29 11:37:41;;;;;;;6.83;4.07;;;;;;;;;;5044231;28;20482;-72
2022/05/29 11:40:15;;;;;;;9.93;6.17;;;21.60;58.80;;;;;;5039730;28;21865;-73
2022/05/29 11:42:48;;;;;;;6.40;4.37;;;21.40;56.00;;;;;;5055635;28;20945;-73
2022/05/29 11:45:23;;;;;;;16.20;5.60;;;21.40;57.60;;;;;;5055748;28;20480;-75
2022/05/29 11:53:36;;;;;;;34.60;5.77;;;20.80;56.30;;;;;;5039228;28;20508;-75
2022/05/29 11:56:07;;;;;;;11.60;6.73;;;20.60;55.10;;;;;;5040719;28;21150;-74
2022/05/29 11:58:40;;;;;;;10.30;4.53;;;20.40;55.00;;;;;;5048607;28;20481;-74
2022/05/29 12:01:13;;;;;;;22.27;9.50;;;20.20;55.90;;;;;;5031726;28;20498;-73
2022/05/29 12:03:45;;;;;;;6.53;3.37;;;20.10;57.70;;;;;;5043735;28;20494;-73
2022/05/29 12:06:15;;;;;;;25.63;6.57;;;19.90;56.50;;;;;;5066859;28;20814;-75
2022/05/29 12:08:51;;;;;;;11.50;5.73;;;19.90;57.80;;;;;;5059539;28;20922;-75
2022/05/29 12:11:35;;;;;;;9.60;5.30;;;19.80;57.60;;;;;;5049634;28;20497;-75
2022/05/29 12:14:16;;;;;;;4.90;3.50;;;19.70;56.00;;;;;;5060265;28;20471;-73
2022/05/29 12:16:49;;;;;;;21.80;5.60;;;19.60;57.50;;;;;;5044175;28;20493;-75
2022/05/29 12:19:18;;;;;;;15.33;8.00;;;19.70;56.90;;;;;;5048799;28;20470;-73
2022/05/29 12:21:50;;;;;;;8.10;4.60;;;20.00;59.30;;;;;;5053017;28;20483;-75
2022/05/29 12:24:21;;;;;;;8.97;4.20;;;20.40;61.20;;;;;;5036131;28;20489;-73
2022/05/29 12:26:53;;;;;;;7.50;3.20;;;20.60;53.50;;;;;;5054258;28;21016;-76
2022/05/29 12:29:25;;;;;;;17.20;4.77;;;20.70;60.40;;;;;;5055422;28;20483;-74
2022/05/29 12:31:58;;;;;;;7.37;4.00;;;20.70;56.80;;;;;;5060315;28;20471;-74
2022/05/29 12:34:29;;;;;;;19.90;6.30;;;20.50;55.70;;;;;;5057579;28;20851;-74
2022/05/29 12:37:14;;;;;;;10.53;5.47;;;20.60;55.70;;;;;;5056064;28;20905;-73
2022/05/29 12:40:00;;;;;;;9.60;4.13;;;20.80;55.50;;;;;;5057330;28;20496;-71
2022/05/29 12:42:48;;;;;;;9.47;5.43;;;20.90;54.00;;;;;;5056953;28;20496;-76
2022/05/29 12:45:36;;;;;;;13.70;6.30;;;20.90;54.30;;;;;;5049003;28;20818;-74
2022/05/29 12:48:37;;;;;;;14.13;7.07;;;21.20;55.80;;;;;;5057920;28;20497;-77
2022/05/29 12:51:17;;;;;;;9.57;6.00;;;21.30;54.00;;;;;;5057896;28;20487;-75
2022/05/29 12:54:21;;;;;;;7.03;4.13;;;21.40;54.50;;;;;;5060619;28;21085;-76
2022/05/29 12:57:14;;;;;;;8.00;4.57;;;21.50;54.10;;;;;;5040816;28;20483;-74
2022/05/29 13:00:22;;;;;;;29.07;5.63;;;21.80;55.40;;;;;;5056037;28;21145;-73
2022/05/29 13:03:16;;;;;;;28.23;4.20;;;21.80;54.90;;;;;;5000459;28;20475;-73
2022/05/29 13:06:22;;;;;;;10.80;5.53;;;22.00;56.20;;;;;;4952752;28;20484;-75
2022/05/29 13:09:11;;;;;;;4.90;3.83;;;22.00;54.20;;;;;;5025917;28;20467;-73
2022/05/29 13:11:41;;;;;;;5.93;3.83;;;21.70;51.60;;;;;;5022510;28;20498;-73
2022/05/29 13:14:09;;;;;;;6.97;4.87;;;21.50;50.90;;;;;;5037287;28;20489;-74
2022/05/29 13:16:39;;;;;;;12.40;3.10;;;21.20;51.50;;;;;;5054276;28;20480;-73
2022/05/29 13:21:59;;;;;;;14.30;3.30;;;20.90;53.40;;;;;;5043334;28;20476;-73
2022/05/29 13:24:29;;;;;;;8.83;4.20;;;20.80;52.10;;;;;;5056419;28;20538;-73
2022/05/29 13:27:33;;;;;;;13.27;8.07;;;20.50;52.20;;;;;;5022233;28;20489;-74
2022/05/29 13:30:02;;;;;;;12.60;8.23;;;;;;;;;;5036266;28;20498;-75
2022/05/29 13:32:30;;;;;;;14.40;7.70;;;20.10;50.60;;;;;;5051273;28;20587;-73
2022/05/29 13:35:30;;;;;;;11.03;7.37;;;19.90;50.30;;;;;;5028736;28;20470;-74
2022/05/29 13:37:58;;;;;;;12.13;8.10;;;19.90;50.20;;;;;;5026969;28;20500;-73
2022/05/29 13:40:48;;;;;;;7.40;5.40;;;20.10;49.50;;;;;;5031868;28;20473;-74
2022/05/29 13:43:37;;;;;;;10.37;6.23;;;21.90;52.70;;;;;;5039910;28;20470;-75
2022/05/29 13:46:16;;;;;;;14.30;4.77;;;20.60;49.80;;;;;;5024012;28;20552;-73
2022/05/29 13:49:07;;;;;;;7.07;4.63;;;20.90;48.90;;;;;;5040425;28;21006;-73
2022/05/29 13:51:41;;;;;;;12.93;6.57;;;21.30;48.70;;;;;;5029215;28;20498;-73
2022/05/29 13:54:20;;;;;;;9.13;5.70;;;21.40;48.80;;;;;;5041078;28;20750;-74
2022/05/29 13:56:57;;;;;;;7.37;4.23;;;21.70;49.00;;;;;;5034631;28;20481;-72